sensor_id;sensor_type;location;lat;lon;timestamp;P1;durP1;ratioP1;P2;durP2;ratioP2
71095;SDS011;58753;49.440;11.126;2024-02-16T00:01:42;1.53;;;0.80;;
71095;SDS011;58753;49.440;11.126;2024-02-16T00:04:07;1.57;;;0.70;;
71095;SDS011;58753;49.440;11.126;2024-02-16T00:06:32;2.70;;;1.42;;
71095;SDS011;58753;49.440;11.126;2024-02-16T00:08:59;2.10;;;0.87;;
71095;SDS011;58753;49.440;11.126;2024-02-16T00:11:24;2.58;;;1.20;;
71095;SDS011;58753;49.440;11.126;2024-02-16T00:13:50;4.77;;;0.67;;
71095;SDS011;58753;49.440;11.126;2024-02-16T00:16:15;2.38;;;1.00;;
71095;SDS011;58753;49.440;11.126;2024-02-16T00:18:41;1.03;;;0.70;;
71095;SDS011;58753;49.440;11.126;2024-02-16T00:21:06;5.20;;;1.40;;
71095;SDS011;58753;49.440;11.126;2024-02-16T00:23:32;4.22;;;1.20;;
71095;SDS011;58753;49.440;11.126;2024-02-16T00:25:59;2.27;;;0.77;;
71095;SDS011;58753;49.440;11.126;2024-02-16T00:28:24;1.63;;;0.75;;
71095;SDS011;58753;49.440;11.126;2024-02-16T00:30:49;13.47;;;1.40;;
71095;SDS011;58753;49.440;11.126;2024-02-16T00:33:15;2.77;;;1.10;;
71095;SDS011;58753;49.440;11.126;2024-02-16T00:35:42;1.73;;;0.70;;
71095;SDS011;58753;49.440;11.126;2024-02-16T00:38:08;1.70;;;0.80;;
71095;SDS011;58753;49.440;11.126;2024-02-16T00:40:33;1.83;;;0.60;;
71095;SDS011;58753;49.440;11.126;2024-02-16T00:42:58;2.05;;;0.70;;
71095;SDS011;58753;49.440;11.126;2024-02-16T00:45:24;2.10;;;0.57;;
71095;SDS011;58753;49.440;11.126;2024-02-16T00:47:50;2.20;;;0.93;;
71095;SDS011;58753;49.440;11.126;2024-02-16T00:50:15;3.40;;;1.23;;
71095;SDS011;58753;49.440;11.126;2024-02-16T00:52:40;3.73;;;1.33;;
71095;SDS011;58753;49.440;11.126;2024-02-16T00:55:06;2.63;;;1.30;;
71095;SDS011;58753;49.440;11.126;2024-02-16T00:57:32;1.45;;;0.63;;
71095;SDS011;58753;49.440;11.126;2024-02-16T00:59:59;5.63;;;1.50;;
71095;SDS011;58753;49.440;11.126;2024-02-16T01:02:25;1.67;;;0.70;;
71095;SDS011;58753;49.440;11.126;2024-02-16T01:04:50;2.22;;;0.65;;
71095;SDS011;58753;49.440;11.126;2024-02-16T01:07:16;1.67;;;0.80;;
71095;SDS011;58753;49.440;11.126;2024-02-16T01:09:42;4.10;;;1.10;;
71095;SDS011;58753;49.440;11.126;2024-02-16T01:12:08;1.98;;;0.88;;
71095;SDS011;58753;49.440;11.126;2024-02-16T01:14:33;1.87;;;1.17;;
71095;SDS011;58753;49.440;11.126;2024-02-16T01:16:59;1.30;;;0.50;;
71095;SDS011;58753;49.440;11.126;2024-02-16T01:19:24;1.90;;;1.25;;
71095;SDS011;58753;49.440;11.126;2024-02-16T01:21:50;1.80;;;0.83;;
71095;SDS011;58753;49.440;11.126;2024-02-16T01:24:18;2.20;;;0.77;;
71095;SDS011;58753;49.440;11.126;2024-02-16T01:26:45;4.13;;;0.90;;
71095;SDS011;58753;49.440;11.126;2024-02-16T01:29:10;1.42;;;0.88;;
71095;SDS011;58753;49.440;11.126;2024-02-16T01:31:36;1.93;;;0.90;;
71095;SDS011;58753;49.440;11.126;2024-02-16T01:34:02;3.25;;;0.60;;
71095;SDS011;58753;49.440;11.126;2024-02-16T01:36:27;2.23;;;1.00;;
71095;SDS011;58753;49.440;11.126;2024-02-16T01:38:52;5.23;;;1.70;;
71095;SDS011;58753;49.440;11.126;2024-02-16T01:41:18;2.72;;;1.20;;
71095;SDS011;58753;49.440;11.126;2024-02-16T01:43:43;4.63;;;1.13;;
71095;SDS011;58753;49.440;11.126;2024-02-16T01:46:09;3.53;;;1.03;;
71095;SDS011;58753;49.440;11.126;2024-02-16T01:48:34;3.17;;;0.70;;
71095;SDS011;58753;49.440;11.126;2024-02-16T01:51:00;6.90;;;1.13;;
71095;SDS011;58753;49.440;11.126;2024-02-16T01:53:27;3.47;;;1.42;;
71095;SDS011;58753;49.440;11.126;2024-02-16T01:55:53;2.43;;;0.93;;
71095;SDS011;58753;49.440;11.126;2024-02-16T01:58:19;3.47;;;1.40;;
71095;SDS011;58753;49.440;11.126;2024-02-16T02:00:44;4.00;;;1.20;;
71095;SDS011;58753;49.440;11.126;2024-02-16T02:03:09;2.17;;;0.80;;
71095;SDS011;58753;49.440;11.126;2024-02-16T02:05:43;2.73;;;1.03;;
71095;SDS011;58753;49.440;11.126;2024-02-16T02:08:11;1.50;;;0.68;;
71095;SDS011;58753;49.440;11.126;2024-02-16T02:10:37;2.95;;;1.35;;
71095;SDS011;58753;49.440;11.126;2024-02-16T02:13:03;2.90;;;1.20;;
71095;SDS011;58753;49.440;11.126;2024-02-16T02:15:28;3.03;;;2.00;;
71095;SDS011;58753;49.440;11.126;2024-02-16T02:17:53;3.80;;;1.87;;
71095;SDS011;58753;49.440;11.126;2024-02-16T02:20:19;2.58;;;1.13;;
71095;SDS011;58753;49.440;11.126;2024-02-16T02:22:44;2.37;;;0.97;;
71095;SDS011;58753;49.440;11.126;2024-02-16T02:25:10;2.07;;;1.10;;
71095;SDS011;58753;49.440;11.126;2024-02-16T02:27:36;2.05;;;1.00;;
71095;SDS011;58753;49.440;11.126;2024-02-16T02:30:02;7.63;;;1.90;;
71095;SDS011;58753;49.440;11.126;2024-02-16T02:32:28;2.70;;;1.00;;
71095;SDS011;58753;49.440;11.126;2024-02-16T02:34:54;2.77;;;0.83;;
71095;SDS011;58753;49.440;11.126;2024-02-16T02:37:19;2.35;;;0.80;;
71095;SDS011;58753;49.440;11.126;2024-02-16T02:39:44;0.90;;;0.63;;
71095;SDS011;58753;49.440;11.126;2024-02-16T02:42:10;1.27;;;0.67;;
71095;SDS011;58753;49.440;11.126;2024-02-16T02:44:35;0.83;;;0.43;;
71095;SDS011;58753;49.440;11.126;2024-02-16T02:47:01;0.77;;;0.40;;
71095;SDS011;58753;49.440;11.126;2024-02-16T02:49:26;1.90;;;0.83;;
71095;SDS011;58753;49.440;11.126;2024-02-16T02:51:52;3.70;;;1.20;;
71095;SDS011;58753;49.440;11.126;2024-02-16T02:54:17;3.47;;;0.83;;
71095;SDS011;58753;49.440;11.126;2024-02-16T02:56:43;2.37;;;1.23;;
71095;SDS011;58753;49.440;11.126;2024-02-16T02:59:08;2.95;;;0.70;;
71095;SDS011;58753;49.440;11.126;2024-02-16T03:01:35;4.68;;;0.80;;
71095;SDS011;58753;49.440;11.126;2024-02-16T03:04:02;1.73;;;0.60;;
71095;SDS011;58753;49.440;11.126;2024-02-16T03:06:27;1.85;;;0.88;;
71095;SDS011;58753;49.440;11.126;2024-02-16T03:08:53;1.17;;;0.70;;
71095;SDS011;58753;49.440;11.126;2024-02-16T03:11:18;1.70;;;0.65;;
71095;SDS011;58753;49.440;11.126;2024-02-16T03:13:44;3.03;;;1.03;;
71095;SDS011;58753;49.440;11.126;2024-02-16T03:16:09;1.77;;;0.97;;
71095;SDS011;58753;49.440;11.126;2024-02-16T03:18:34;1.53;;;0.60;;
71095;SDS011;58753;49.440;11.126;2024-02-16T03:21:01;1.83;;;0.60;;
71095;SDS011;58753;49.440;11.126;2024-02-16T03:23:27;1.23;;;0.77;;
71095;SDS011;58753;49.440;11.126;2024-02-16T03:25:52;3.83;;;0.77;;
71095;SDS011;58753;49.440;11.126;2024-02-16T03:28:18;1.70;;;0.75;;
71095;SDS011;58753;49.440;11.126;2024-02-16T03:30:43;2.03;;;0.53;;
71095;SDS011;58753;49.440;11.126;2024-02-16T03:33:09;1.60;;;0.73;;
71095;SDS011;58753;49.440;11.126;2024-02-16T03:35:35;2.00;;;0.93;;
71095;SDS011;58753;49.440;11.126;2024-02-16T03:38:02;1.60;;;0.45;;
71095;SDS011;58753;49.440;11.126;2024-02-16T03:40:28;1.40;;;0.70;;
71095;SDS011;58753;49.440;11.126;2024-02-16T03:42:53;2.00;;;0.67;;
71095;SDS011;58753;49.440;11.126;2024-02-16T03:45:19;1.25;;;0.40;;
71095;SDS011;58753;49.440;11.126;2024-02-16T03:47:45;1.88;;;0.60;;
71095;SDS011;58753;49.440;11.126;2024-02-16T03:50:13;1.13;;;0.30;;
71095;SDS011;58753;49.440;11.126;2024-02-16T03:52:39;0.82;;;0.40;;
71095;SDS011;58753;49.440;11.126;2024-02-16T03:55:05;1.52;;;0.50;;
71095;SDS011;58753;49.440;11.126;2024-02-16T03:57:31;0.50;;;0.20;;
71095;SDS011;58753;49.440;11.126;2024-02-16T03:59:56;1.88;;;1.00;;
71095;SDS011;58753;49.440;11.126;2024-02-16T04:02:22;1.10;;;0.40;;
71095;SDS011;58753;49.440;11.126;2024-02-16T04:04:48;1.73;;;0.82;;
71095;SDS011;58753;49.440;11.126;2024-02-16T04:07:13;0.90;;;0.43;;
71095;SDS011;58753;49.440;11.126;2024-02-16T04:09:39;0.85;;;0.40;;
71095;SDS011;58753;49.440;11.126;2024-02-16T04:12:05;0.53;;;0.30;;
71095;SDS011;58753;49.440;11.126;2024-02-16T04:14:30;1.73;;;0.60;;
71095;SDS011;58753;49.440;11.126;2024-02-16T04:16:56;3.40;;;0.50;;
71095;SDS011;58753;49.440;11.126;2024-02-16T04:19:28;2.42;;;1.00;;
71095;SDS011;58753;49.440;11.126;2024-02-16T04:21:54;0.47;;;0.37;;
71095;SDS011;58753;49.440;11.126;2024-02-16T04:24:20;1.50;;;0.75;;
71095;SDS011;58753;49.440;11.126;2024-02-16T04:26:46;1.98;;;0.65;;
71095;SDS011;58753;49.440;11.126;2024-02-16T04:29:11;4.10;;;1.97;;
71095;SDS011;58753;49.440;11.126;2024-02-16T04:31:40;1.33;;;0.60;;
71095;SDS011;58753;49.440;11.126;2024-02-16T04:34:07;2.10;;;0.70;;
71095;SDS011;58753;49.440;11.126;2024-02-16T04:36:35;1.02;;;0.50;;
71095;SDS011;58753;49.440;11.126;2024-02-16T04:39:01;0.70;;;0.40;;
71095;SDS011;58753;49.440;11.126;2024-02-16T04:41:26;1.53;;;0.30;;
71095;SDS011;58753;49.440;11.126;2024-02-16T04:43:51;1.60;;;0.80;;
71095;SDS011;58753;49.440;11.126;2024-02-16T04:46:18;2.63;;;0.40;;
71095;SDS011;58753;49.440;11.126;2024-02-16T04:48:43;1.17;;;0.50;;
71095;SDS011;58753;49.440;11.126;2024-02-16T04:51:10;2.07;;;0.93;;
71095;SDS011;58753;49.440;11.126;2024-02-16T04:53:35;1.42;;;0.43;;
71095;SDS011;58753;49.440;11.126;2024-02-16T04:56:01;1.00;;;0.40;;
71095;SDS011;58753;49.440;11.126;2024-02-16T04:58:27;0.85;;;0.47;;
71095;SDS011;58753;49.440;11.126;2024-02-16T05:00:52;1.40;;;0.75;;
71095;SDS011;58753;49.440;11.126;2024-02-16T05:03:18;2.50;;;0.40;;
71095;SDS011;58753;49.440;11.126;2024-02-16T05:05:43;1.30;;;0.83;;
71095;SDS011;58753;49.440;11.126;2024-02-16T05:08:09;0.67;;;0.23;;
71095;SDS011;58753;49.440;11.126;2024-02-16T05:10:34;1.40;;;0.70;;
71095;SDS011;58753;49.440;11.126;2024-02-16T05:12:59;3.17;;;0.80;;
71095;SDS011;58753;49.440;11.126;2024-02-16T05:15:25;2.10;;;0.60;;
71095;SDS011;58753;49.440;11.126;2024-02-16T05:17:51;1.67;;;0.47;;
71095;SDS011;58753;49.440;11.126;2024-02-16T05:20:16;2.43;;;0.83;;
71095;SDS011;58753;49.440;11.126;2024-02-16T05:22:42;1.53;;;0.77;;
71095;SDS011;58753;49.440;11.126;2024-02-16T05:25:09;1.63;;;0.93;;
71095;SDS011;58753;49.440;11.126;2024-02-16T05:27:35;2.78;;;1.48;;
71095;SDS011;58753;49.440;11.126;2024-02-16T05:30:02;1.83;;;0.70;;
71095;SDS011;58753;49.440;11.126;2024-02-16T05:32:29;2.83;;;1.33;;
71095;SDS011;58753;49.440;11.126;2024-02-16T05:34:54;1.40;;;0.97;;
71095;SDS011;58753;49.440;11.126;2024-02-16T05:37:20;4.07;;;0.75;;
71095;SDS011;58753;49.440;11.126;2024-02-16T05:39:47;1.80;;;1.10;;
71095;SDS011;58753;49.440;11.126;2024-02-16T05:42:34;3.63;;;1.52;;
71095;SDS011;58753;49.440;11.126;2024-02-16T05:45:00;4.88;;;1.52;;
71095;SDS011;58753;49.440;11.126;2024-02-16T05:47:26;3.03;;;1.33;;
71095;SDS011;58753;49.440;11.126;2024-02-16T05:49:53;4.50;;;1.70;;
71095;SDS011;58753;49.440;11.126;2024-02-16T05:52:18;1.63;;;0.77;;
71095;SDS011;58753;49.440;11.126;2024-02-16T05:54:44;2.57;;;1.30;;
71095;SDS011;58753;49.440;11.126;2024-02-16T05:57:10;2.53;;;0.97;;
71095;SDS011;58753;49.440;11.126;2024-02-16T05:59:35;2.30;;;1.27;;
71095;SDS011;58753;49.440;11.126;2024-02-16T06:02:01;4.47;;;0.97;;
71095;SDS011;58753;49.440;11.126;2024-02-16T06:04:26;1.93;;;1.10;;
71095;SDS011;58753;49.440;11.126;2024-02-16T06:06:55;2.72;;;1.02;;
71095;SDS011;58753;49.440;11.126;2024-02-16T06:09:20;3.03;;;1.47;;
71095;SDS011;58753;49.440;11.126;2024-02-16T06:11:45;4.55;;;1.90;;
71095;SDS011;58753;49.440;11.126;2024-02-16T06:14:11;2.43;;;1.53;;
71095;SDS011;58753;49.440;11.126;2024-02-16T06:16:36;2.90;;;1.73;;
71095;SDS011;58753;49.440;11.126;2024-02-16T06:19:02;3.13;;;2.03;;
71095;SDS011;58753;49.440;11.126;2024-02-16T06:21:28;11.52;;;4.50;;
71095;SDS011;58753;49.440;11.126;2024-02-16T06:23:54;10.97;;;4.70;;
71095;SDS011;58753;49.440;11.126;2024-02-16T06:26:20;8.35;;;4.03;;
71095;SDS011;58753;49.440;11.126;2024-02-16T06:28:45;14.43;;;5.07;;
71095;SDS011;58753;49.440;11.126;2024-02-16T06:31:10;24.40;;;10.77;;
71095;SDS011;58753;49.440;11.126;2024-02-16T06:33:38;27.75;;;13.00;;
71095;SDS011;58753;49.440;11.126;2024-02-16T06:36:03;17.03;;;6.47;;
71095;SDS011;58753;49.440;11.126;2024-02-16T06:38:29;22.92;;;7.10;;
71095;SDS011;58753;49.440;11.126;2024-02-16T06:40:54;11.63;;;5.20;;
71095;SDS011;58753;49.440;11.126;2024-02-16T06:43:20;16.20;;;6.27;;
71095;SDS011;58753;49.440;11.126;2024-02-16T06:45:45;14.98;;;5.80;;
71095;SDS011;58753;49.440;11.126;2024-02-16T06:48:11;19.20;;;6.67;;
71095;SDS011;58753;49.440;11.126;2024-02-16T06:50:36;14.80;;;6.10;;
71095;SDS011;58753;49.440;11.126;2024-02-16T06:53:02;9.83;;;5.50;;
71095;SDS011;58753;49.440;11.126;2024-02-16T06:55:27;11.23;;;4.03;;
71095;SDS011;58753;49.440;11.126;2024-02-16T06:57:53;13.47;;;5.33;;
71095;SDS011;58753;49.440;11.126;2024-02-16T07:00:18;10.20;;;4.37;;
71095;SDS011;58753;49.440;11.126;2024-02-16T07:02:45;8.25;;;4.65;;
71095;SDS011;58753;49.440;11.126;2024-02-16T07:05:11;9.07;;;4.05;;
71095;SDS011;58753;49.440;11.126;2024-02-16T07:07:37;6.72;;;3.20;;
71095;SDS011;58753;49.440;11.126;2024-02-16T07:10:02;5.13;;;2.30;;
71095;SDS011;58753;49.440;11.126;2024-02-16T07:12:28;1.77;;;0.93;;
71095;SDS011;58753;49.440;11.126;2024-02-16T07:14:53;3.27;;;1.50;;
71095;SDS011;58753;49.440;11.126;2024-02-16T07:17:19;6.07;;;2.33;;
71095;SDS011;58753;49.440;11.126;2024-02-16T07:19:44;4.70;;;2.07;;
71095;SDS011;58753;49.440;11.126;2024-02-16T07:22:10;6.27;;;1.67;;
71095;SDS011;58753;49.440;11.126;2024-02-16T07:24:37;4.43;;;1.58;;
71095;SDS011;58753;49.440;11.126;2024-02-16T07:27:03;3.97;;;1.67;;
71095;SDS011;58753;49.440;11.126;2024-02-16T07:29:28;2.87;;;1.40;;
71095;SDS011;58753;49.440;11.126;2024-02-16T07:31:54;1.67;;;1.10;;
71095;SDS011;58753;49.440;11.126;2024-02-16T07:34:20;4.68;;;1.23;;
71095;SDS011;58753;49.440;11.126;2024-02-16T07:36:46;1.63;;;0.90;;
71095;SDS011;58753;49.440;11.126;2024-02-16T07:39:11;2.50;;;0.80;;
71095;SDS011;58753;49.440;11.126;2024-02-16T07:41:37;3.07;;;1.57;;
71095;SDS011;58753;49.440;11.126;2024-02-16T07:44:03;2.50;;;1.10;;
71095;SDS011;58753;49.440;11.126;2024-02-16T07:46:29;4.00;;;1.87;;
71095;SDS011;58753;49.440;11.126;2024-02-16T07:48:54;3.08;;;1.23;;
71095;SDS011;58753;49.440;11.126;2024-02-16T07:51:20;1.80;;;0.83;;
71095;SDS011;58753;49.440;11.126;2024-02-16T07:53:46;2.28;;;1.23;;
71095;SDS011;58753;49.440;11.126;2024-02-16T07:56:12;3.47;;;1.93;;
71095;SDS011;58753;49.440;11.126;2024-02-16T07:58:37;8.43;;;2.63;;
71095;SDS011;58753;49.440;11.126;2024-02-16T08:01:03;2.67;;;1.33;;
71095;SDS011;58753;49.440;11.126;2024-02-16T08:03:28;4.90;;;2.60;;
71095;SDS011;58753;49.440;11.126;2024-02-16T08:05:54;5.13;;;2.38;;
71095;SDS011;58753;49.440;11.126;2024-02-16T08:08:21;4.90;;;2.57;;
71095;SDS011;58753;49.440;11.126;2024-02-16T08:10:48;12.63;;;3.17;;
71095;SDS011;58753;49.440;11.126;2024-02-16T08:13:13;3.78;;;2.50;;
71095;SDS011;58753;49.440;11.126;2024-02-16T08:15:39;10.10;;;3.40;;
71095;SDS011;58753;49.440;11.126;2024-02-16T08:18:04;4.87;;;2.60;;
71095;SDS011;58753;49.440;11.126;2024-02-16T08:20:30;6.53;;;3.35;;
71095;SDS011;58753;49.440;11.126;2024-02-16T08:22:56;7.40;;;3.73;;
71095;SDS011;58753;49.440;11.126;2024-02-16T08:25:21;5.65;;;3.15;;
71095;SDS011;58753;49.440;11.126;2024-02-16T08:27:47;6.07;;;3.67;;
71095;SDS011;58753;49.440;11.126;2024-02-16T08:30:14;12.00;;;2.65;;
71095;SDS011;58753;49.440;11.126;2024-02-16T08:32:40;6.90;;;2.83;;
71095;SDS011;58753;49.440;11.126;2024-02-16T08:35:05;5.37;;;3.10;;
71095;SDS011;58753;49.440;11.126;2024-02-16T08:37:31;6.23;;;2.83;;
71095;SDS011;58753;49.440;11.126;2024-02-16T08:39:57;6.63;;;2.95;;
71095;SDS011;58753;49.440;11.126;2024-02-16T08:42:22;4.15;;;2.47;;
71095;SDS011;58753;49.440;11.126;2024-02-16T08:44:48;5.20;;;2.30;;
71095;SDS011;58753;49.440;11.126;2024-02-16T08:47:14;5.57;;;3.15;;
71095;SDS011;58753;49.440;11.126;2024-02-16T08:49:40;9.88;;;2.75;;
71095;SDS011;58753;49.440;11.126;2024-02-16T08:52:07;4.18;;;2.15;;
71095;SDS011;58753;49.440;11.126;2024-02-16T08:54:33;5.23;;;3.07;;
71095;SDS011;58753;49.440;11.126;2024-02-16T08:56:59;4.38;;;2.20;;
71095;SDS011;58753;49.440;11.126;2024-02-16T08:59:24;8.98;;;3.45;;
71095;SDS011;58753;49.440;11.126;2024-02-16T09:01:51;4.27;;;2.03;;
71095;SDS011;58753;49.440;11.126;2024-02-16T09:04:17;5.38;;;2.35;;
71095;SDS011;58753;49.440;11.126;2024-02-16T09:06:42;6.00;;;2.57;;
71095;SDS011;58753;49.440;11.126;2024-02-16T09:09:07;4.73;;;2.30;;
71095;SDS011;58753;49.440;11.126;2024-02-16T09:11:33;4.13;;;2.50;;
71095;SDS011;58753;49.440;11.126;2024-02-16T09:14:01;4.93;;;2.17;;
71095;SDS011;58753;49.440;11.126;2024-02-16T09:16:27;7.35;;;2.88;;
71095;SDS011;58753;49.440;11.126;2024-02-16T09:18:52;6.50;;;3.57;;
71095;SDS011;58753;49.440;11.126;2024-02-16T09:21:18;4.73;;;2.53;;
71095;SDS011;58753;49.440;11.126;2024-02-16T09:23:44;5.20;;;2.53;;
71095;SDS011;58753;49.440;11.126;2024-02-16T09:26:10;5.77;;;2.03;;
71095;SDS011;58753;49.440;11.126;2024-02-16T09:28:39;4.25;;;1.90;;
71095;SDS011;58753;49.440;11.126;2024-02-16T09:31:06;4.75;;;2.25;;
71095;SDS011;58753;49.440;11.126;2024-02-16T09:33:33;4.40;;;1.90;;
71095;SDS011;58753;49.440;11.126;2024-02-16T09:35:58;4.28;;;1.80;;
71095;SDS011;58753;49.440;11.126;2024-02-16T09:38:24;4.60;;;2.40;;
71095;SDS011;58753;49.440;11.126;2024-02-16T09:40:49;10.33;;;2.60;;
71095;SDS011;58753;49.440;11.126;2024-02-16T09:43:28;8.07;;;2.42;;
71095;SDS011;58753;49.440;11.126;2024-02-16T09:45:58;5.00;;;2.30;;
71095;SDS011;58753;49.440;11.126;2024-02-16T09:48:28;8.23;;;2.80;;
71095;SDS011;58753;49.440;11.126;2024-02-16T09:50:54;4.13;;;2.33;;
71095;SDS011;58753;49.440;11.126;2024-02-16T09:53:21;4.82;;;2.80;;
71095;SDS011;58753;49.440;11.126;2024-02-16T09:55:49;3.42;;;1.60;;
71095;SDS011;58753;49.440;11.126;2024-02-16T09:58:16;3.33;;;1.60;;
71095;SDS011;58753;49.440;11.126;2024-02-16T10:03:28;4.38;;;2.00;;
71095;SDS011;58753;49.440;11.126;2024-02-16T10:06:08;4.07;;;1.90;;
71095;SDS011;58753;49.440;11.126;2024-02-16T10:08:35;4.57;;;1.67;;
71095;SDS011;58753;49.440;11.126;2024-02-16T10:11:18;3.13;;;1.73;;
71095;SDS011;58753;49.440;11.126;2024-02-16T10:14:00;3.97;;;2.05;;
71095;SDS011;58753;49.440;11.126;2024-02-16T10:16:27;4.22;;;2.25;;
71095;SDS011;58753;49.440;11.126;2024-02-16T10:19:12;5.50;;;2.57;;
71095;SDS011;58753;49.440;11.126;2024-02-16T10:21:37;3.25;;;1.77;;
71095;SDS011;58753;49.440;11.126;2024-02-16T10:24:07;6.70;;;2.38;;
71095;SDS011;58753;49.440;11.126;2024-02-16T10:26:34;4.90;;;2.10;;
71095;SDS011;58753;49.440;11.126;2024-02-16T10:29:14;3.72;;;1.95;;
71095;SDS011;58753;49.440;11.126;2024-02-16T10:31:46;8.33;;;1.60;;
71095;SDS011;58753;49.440;11.126;2024-02-16T10:34:12;4.70;;;1.83;;
71095;SDS011;58753;49.440;11.126;2024-02-16T10:36:38;4.38;;;1.80;;
71095;SDS011;58753;49.440;11.126;2024-02-16T10:39:06;5.37;;;1.87;;
71095;SDS011;58753;49.440;11.126;2024-02-16T10:41:40;10.35;;;2.30;;
71095;SDS011;58753;49.440;11.126;2024-02-16T10:44:06;4.85;;;1.98;;
71095;SDS011;58753;49.440;11.126;2024-02-16T10:46:32;7.10;;;1.80;;
71095;SDS011;58753;49.440;11.126;2024-02-16T10:48:58;2.80;;;1.17;;
71095;SDS011;58753;49.440;11.126;2024-02-16T10:54:14;3.92;;;1.42;;
71095;SDS011;58753;49.440;11.126;2024-02-16T10:56:42;3.47;;;1.40;;
71095;SDS011;58753;49.440;11.126;2024-02-16T10:59:09;3.47;;;1.70;;
71095;SDS011;58753;49.440;11.126;2024-02-16T11:04:05;4.10;;;1.88;;
71095;SDS011;58753;49.440;11.126;2024-02-16T11:09:26;2.05;;;0.82;;
71095;SDS011;58753;49.440;11.126;2024-02-16T11:11:58;3.03;;;1.52;;
71095;SDS011;58753;49.440;11.126;2024-02-16T11:14:33;6.40;;;1.60;;
71095;SDS011;58753;49.440;11.126;2024-02-16T11:17:02;2.97;;;1.45;;
71095;SDS011;58753;49.440;11.126;2024-02-16T11:19:37;4.47;;;1.50;;
71095;SDS011;58753;49.440;11.126;2024-02-16T11:22:05;4.38;;;1.80;;
71095;SDS011;58753;49.440;11.126;2024-02-16T11:24:35;3.47;;;1.83;;
71095;SDS011;58753;49.440;11.126;2024-02-16T11:27:02;3.30;;;1.40;;
71095;SDS011;58753;49.440;11.126;2024-02-16T11:29:32;3.88;;;1.40;;
71095;SDS011;58753;49.440;11.126;2024-02-16T11:31:59;2.47;;;1.23;;
71095;SDS011;58753;49.440;11.126;2024-02-16T11:34:26;2.38;;;1.23;;
71095;SDS011;58753;49.440;11.126;2024-02-16T11:36:52;2.58;;;1.13;;
71095;SDS011;58753;49.440;11.126;2024-02-16T11:39:19;2.87;;;1.27;;
71095;SDS011;58753;49.440;11.126;2024-02-16T11:41:45;5.38;;;1.38;;
71095;SDS011;58753;49.440;11.126;2024-02-16T11:44:12;1.77;;;1.20;;
71095;SDS011;58753;49.440;11.126;2024-02-16T11:46:41;2.97;;;1.50;;
71095;SDS011;58753;49.440;11.126;2024-02-16T11:49:07;5.93;;;1.73;;
71095;SDS011;58753;49.440;11.126;2024-02-16T11:51:33;3.45;;;1.55;;
71095;SDS011;58753;49.440;11.126;2024-02-16T11:53:59;3.63;;;1.33;;
71095;SDS011;58753;49.440;11.126;2024-02-16T11:56:25;4.25;;;1.52;;
71095;SDS011;58753;49.440;11.126;2024-02-16T11:58:51;3.85;;;1.38;;
71095;SDS011;58753;49.440;11.126;2024-02-16T12:01:18;6.07;;;1.93;;
71095;SDS011;58753;49.440;11.126;2024-02-16T12:03:43;3.50;;;1.45;;
71095;SDS011;58753;49.440;11.126;2024-02-16T12:06:09;2.87;;;1.73;;
71095;SDS011;58753;49.440;11.126;2024-02-16T12:08:34;3.43;;;2.03;;
71095;SDS011;58753;49.440;11.126;2024-02-16T12:11:00;3.30;;;1.55;;
71095;SDS011;58753;49.440;11.126;2024-02-16T12:13:27;2.83;;;1.33;;
71095;SDS011;58753;49.440;11.126;2024-02-16T12:15:53;3.17;;;1.43;;
71095;SDS011;58753;49.440;11.126;2024-02-16T12:18:24;1.95;;;0.98;;
71095;SDS011;58753;49.440;11.126;2024-02-16T12:20:58;3.35;;;1.45;;
71095;SDS011;58753;49.440;11.126;2024-02-16T12:23:24;4.73;;;1.53;;
71095;SDS011;58753;49.440;11.126;2024-02-16T12:25:50;3.35;;;1.50;;
71095;SDS011;58753;49.440;11.126;2024-02-16T12:28:15;4.03;;;1.50;;
71095;SDS011;58753;49.440;11.126;2024-02-16T12:30:40;3.27;;;1.60;;
71095;SDS011;58753;49.440;11.126;2024-02-16T12:33:06;3.83;;;1.50;;
71095;SDS011;58753;49.440;11.126;2024-02-16T12:35:31;5.97;;;1.75;;
71095;SDS011;58753;49.440;11.126;2024-02-16T12:37:57;4.77;;;1.57;;
71095;SDS011;58753;49.440;11.126;2024-02-16T12:40:22;6.80;;;1.90;;
71095;SDS011;58753;49.440;11.126;2024-02-16T12:42:48;2.92;;;1.60;;
71095;SDS011;58753;49.440;11.126;2024-02-16T12:45:13;3.17;;;2.07;;
71095;SDS011;58753;49.440;11.126;2024-02-16T12:47:41;4.70;;;1.40;;
71095;SDS011;58753;49.440;11.126;2024-02-16T12:50:06;3.07;;;1.87;;
71095;SDS011;58753;49.440;11.126;2024-02-16T12:52:32;3.17;;;1.48;;
71095;SDS011;58753;49.440;11.126;2024-02-16T12:54:59;3.03;;;1.50;;
71095;SDS011;58753;49.440;11.126;2024-02-16T12:57:24;3.45;;;1.50;;
71095;SDS011;58753;49.440;11.126;2024-02-16T12:59:50;3.47;;;1.63;;
71095;SDS011;58753;49.440;11.126;2024-02-16T13:02:15;2.60;;;1.53;;
71095;SDS011;58753;49.440;11.126;2024-02-16T13:04:40;2.60;;;1.10;;
71095;SDS011;58753;49.440;11.126;2024-02-16T13:07:06;6.07;;;1.10;;
71095;SDS011;58753;49.440;11.126;2024-02-16T13:09:31;6.03;;;1.77;;
71095;SDS011;58753;49.440;11.126;2024-02-16T13:11:57;3.00;;;1.10;;
71095;SDS011;58753;49.440;11.126;2024-02-16T13:14:22;2.27;;;1.60;;
71095;SDS011;58753;49.440;11.126;2024-02-16T13:16:48;5.65;;;1.73;;
71095;SDS011;58753;49.440;11.126;2024-02-16T13:19:13;2.80;;;1.37;;
71095;SDS011;58753;49.440;11.126;2024-02-16T13:21:39;3.27;;;1.70;;
71095;SDS011;58753;49.440;11.126;2024-02-16T13:24:05;4.65;;;1.73;;
71095;SDS011;58753;49.440;11.126;2024-02-16T13:26:31;4.43;;;1.60;;
71095;SDS011;58753;49.440;11.126;2024-02-16T13:28:56;3.47;;;1.80;;
71095;SDS011;58753;49.440;11.126;2024-02-16T13:31:22;3.70;;;1.67;;
71095;SDS011;58753;49.440;11.126;2024-02-16T13:33:49;3.43;;;1.30;;
71095;SDS011;58753;49.440;11.126;2024-02-16T13:36:14;3.40;;;1.42;;
71095;SDS011;58753;49.440;11.126;2024-02-16T13:38:40;5.13;;;1.50;;
71095;SDS011;58753;49.440;11.126;2024-02-16T13:41:05;5.68;;;2.00;;
71095;SDS011;58753;49.440;11.126;2024-02-16T13:43:31;3.50;;;1.77;;
71095;SDS011;58753;49.440;11.126;2024-02-16T13:45:56;3.43;;;1.70;;
71095;SDS011;58753;49.440;11.126;2024-02-16T13:48:23;3.20;;;1.53;;
71095;SDS011;58753;49.440;11.126;2024-02-16T13:50:49;4.45;;;1.92;;
71095;SDS011;58753;49.440;11.126;2024-02-16T13:53:15;3.95;;;1.63;;
71095;SDS011;58753;49.440;11.126;2024-02-16T13:55:42;3.60;;;1.70;;
71095;SDS011;58753;49.440;11.126;2024-02-16T13:58:11;3.35;;;1.40;;
71095;SDS011;58753;49.440;11.126;2024-02-16T14:00:37;3.13;;;1.55;;
71095;SDS011;58753;49.440;11.126;2024-02-16T14:03:03;2.70;;;1.50;;
71095;SDS011;58753;49.440;11.126;2024-02-16T14:05:30;2.08;;;1.10;;
71095;SDS011;58753;49.440;11.126;2024-02-16T14:07:56;6.10;;;1.73;;
71095;SDS011;58753;49.440;11.126;2024-02-16T14:10:22;3.60;;;1.30;;
71095;SDS011;58753;49.440;11.126;2024-02-16T14:12:47;2.93;;;1.40;;
71095;SDS011;58753;49.440;11.126;2024-02-16T14:15:13;1.97;;;1.00;;
71095;SDS011;58753;49.440;11.126;2024-02-16T14:17:41;2.47;;;1.58;;
71095;SDS011;58753;49.440;11.126;2024-02-16T14:20:07;2.40;;;1.42;;
71095;SDS011;58753;49.440;11.126;2024-02-16T14:22:33;3.50;;;1.43;;
71095;SDS011;58753;49.440;11.126;2024-02-16T14:24:59;2.60;;;1.30;;
71095;SDS011;58753;49.440;11.126;2024-02-16T14:27:24;3.17;;;1.20;;
71095;SDS011;58753;49.440;11.126;2024-02-16T14:29:50;7.68;;;1.50;;
71095;SDS011;58753;49.440;11.126;2024-02-16T14:32:16;2.70;;;1.55;;
71095;SDS011;58753;49.440;11.126;2024-02-16T14:34:42;4.30;;;1.37;;
71095;SDS011;58753;49.440;11.126;2024-02-16T14:37:08;4.78;;;1.95;;
71095;SDS011;58753;49.440;11.126;2024-02-16T14:39:34;3.30;;;1.05;;